Time;durP1;ratioP1;P1;durP2;ratioP2;P2;SDS_P1;SDS_P2;PMS_P1;PMS_P2;Temp;Humidity;BMP_temperature;BMP_pressure;BME280_temperature;BME280_humidity;BME280_pressure;Samples;Min_cycle;Max_cycle;Signal;HPM_P1;HPM_P2
2024/03/23 00:01:15;;;;;;;11.43;5.03;;;;;;;-141.50;100.00;63355.56;4901384;29;20075;-85
2024/03/23 00:03:42;;;;;;;10.90;4.72;;;;;;;-141.50;100.00;63355.56;4905263;29;20059;-84
2024/03/23 00:06:09;;;;;;;11.70;4.78;;;;;;;-141.50;100.00;63355.56;4919779;29;20043;-84
2024/03/23 00:08:36;;;;;;;15.45;4.97;;;;;;;-141.50;100.00;63355.56;4921304;29;20200;-84
2024/03/23 00:11:04;;;;;;;8.88;4.70;;;;;;;-141.50;100.00;63355.56;4908915;29;20051;-85
2024/03/23 00:13:31;;;;;;;11.52;5.20;;;;;;;-141.50;100.00;63355.56;4920252;29;20141;-85
2024/03/23 00:15:59;;;;;;;8.85;4.53;;;;;;;-141.50;100.00;63355.56;4902972;29;20056;-85
2024/03/23 00:18:26;;;;;;;9.68;4.80;;;;;;;-141.50;100.00;63355.56;4920046;29;20055;-84
2024/03/23 00:20:58;;;;;;;11.38;5.07;;;;;;;-141.50;100.00;63355.56;4919630;28;20063;-84
2024/03/23 00:23:24;;;;;;;10.68;5.13;;;;;;;-141.50;100.00;63355.56;4908339;29;20205;-85
2024/03/23 00:25:52;;;;;;;11.38;4.88;;;;;;;-141.50;100.00;63355.56;4906720;29;20338;-84
2024/03/23 00:28:19;;;;;;;9.93;5.18;;;;;;;-141.50;100.00;63355.56;4920596;29;20049;-86
2024/03/23 00:30:47;;;;;;;8.23;4.80;;;;;;;-141.50;100.00;63355.56;4921695;29;20055;-84
2024/03/23 00:33:13;;;;;;;9.45;4.90;;;;;;;-141.50;100.00;63355.56;4922264;29;20056;-85
2024/03/23 00:35:41;;;;;;;8.95;4.90;;;;;;;-141.50;100.00;63355.56;4921559;29;20079;-86
2024/03/23 00:38:08;;;;;;;9.10;4.95;;;;;;;-141.50;100.00;63355.56;4927671;28;20110;-85
2024/03/23 00:40:36;;;;;;;12.70;5.20;;;;;;;-141.50;100.00;63355.56;4912858;29;20076;-84
2024/03/23 00:43:03;;;;;;;11.70;6.13;;;;;;;-141.50;100.00;63355.56;4918176;29;20397;-86
2024/03/23 00:45:30;;;;;;;16.77;6.60;;;;;;;-141.50;100.00;63355.56;4920820;29;20056;-86
2024/03/23 00:47:57;;;;;;;13.52;5.82;;;;;;;-141.50;100.00;63355.56;4900423;29;20075;-86
2024/03/23 00:50:24;;;;;;;12.20;5.57;;;;;;;-141.50;100.00;63355.56;4934890;28;20571;-85
2024/03/23 00:52:50;;;;;;;11.52;5.40;;;;;;;-141.50;100.00;63355.56;4935560;28;20051;-84
2024/03/23 00:55:16;;;;;;;13.02;5.90;;;;;;;-141.50;100.00;63355.56;4919454;29;20111;-84
2024/03/23 00:57:42;;;;;;;12.48;5.60;;;;;;;-141.50;100.00;63355.56;4919949;29;20071;-85
2024/03/23 01:00:12;;;;;;;12.70;6.15;;;;;;;-141.50;100.00;63355.56;4919004;29;20412;-85
2024/03/23 01:02:38;;;;;;;13.77;6.03;;;;;;;-141.50;100.00;63355.56;4917429;29;20498;-86
2024/03/23 01:05:04;;;;;;;10.80;5.93;;;;;;;-141.50;100.00;63355.56;4916479;29;20059;-84
2024/03/23 01:07:30;;;;;;;11.13;5.63;;;;;;;-141.50;100.00;63355.56;4933612;28;20571;-84
2024/03/23 01:09:56;;;;;;;13.25;5.35;;;;;;;-141.50;100.00;63355.56;4915522;29;20090;-85
2024/03/23 01:12:22;;;;;;;9.45;5.60;;;;;;;-141.50;100.00;63355.56;4916439;29;20052;-85
2024/03/23 01:14:48;;;;;;;10.52;5.35;;;;;;;-141.50;100.00;63355.56;4916812;29;20147;-84
2024/03/23 01:17:14;;;;;;;10.02;5.43;;;;;;;-141.50;100.00;63355.56;4915687;29;20064;-85
2024/03/23 01:19:41;;;;;;;10.80;5.50;;;;;;;-141.50;100.00;63355.56;4902063;29;20063;-84
2024/03/23 01:22:07;;;;;;;10.55;5.40;;;;;;;-141.50;100.00;63355.56;4917763;29;20047;-84
2024/03/23 01:24:34;;;;;;;12.48;5.32;;;;;;;-141.50;100.00;63355.56;4899594;29;20060;-86
2024/03/23 01:27:00;;;;;;;8.77;5.10;;;;;;;-141.50;100.00;63355.56;4935549;29;20175;-86
2024/03/23 01:29:26;;;;;;;12.00;5.82;;;;;;;-141.50;100.00;63355.56;4917267;29;20040;-87
2024/03/23 01:31:52;;;;;;;13.50;5.90;;;;;;;-141.50;100.00;63355.56;4917812;29;20139;-86
2024/03/23 01:34:20;;;;;;;11.63;6.13;;;;;;;-141.50;100.00;63355.56;4916827;29;20075;-86
2024/03/23 01:36:46;;;;;;;10.80;5.43;;;;;;;-141.50;100.00;63355.56;4918366;29;20095;-84
2024/03/23 01:39:14;;;;;;;12.07;6.00;;;;;;;-141.50;100.00;63355.56;4917834;29;20625;-83
2024/03/23 01:41:42;;;;;;;11.95;5.28;;;;;;;-141.50;100.00;63355.56;4918131;29;20055;-84
2024/03/23 01:44:09;;;;;;;10.52;5.53;;;;;;;-141.50;100.00;63355.56;4918589;29;20082;-83
2024/03/23 01:46:37;;;;;;;10.95;5.10;;;;;;;-141.50;100.00;63355.56;4916846;29;20060;-84
2024/03/23 01:49:06;;;;;;;9.57;5.22;;;;;;;-141.50;100.00;63355.56;4932190;29;20719;-83
2024/03/23 01:51:32;;;;;;;9.70;5.53;;;;;;;-141.50;100.00;63355.56;4921438;29;20044;-84
2024/03/23 01:54:03;;;;;;;9.68;5.22;;;;;;;-141.50;100.00;63355.56;4918139;29;20075;-83
2024/03/23 01:56:35;;;;;;;13.02;5.65;;;;;;;-141.50;100.00;63355.56;4920491;29;20062;-84
2024/03/23 01:59:05;;;;;;;13.43;5.40;;;;;;;-141.50;100.00;63355.56;4913715;29;20448;-83
2024/03/23 02:01:32;;;;;;;15.05;6.32;;;;;;;-141.50;100.00;63355.56;4922237;29;20044;-85
2024/03/23 02:03:58;;;;;;;14.55;6.50;;;;;;;-141.50;100.00;63355.56;4920347;29;20176;-85
2024/03/23 02:06:25;;;;;;;15.43;7.10;;;;;;;-141.50;100.00;63355.56;4919761;29;20067;-85
2024/03/23 02:08:51;;;;;;;18.95;7.85;;;;;;;-141.50;100.00;63355.56;4910659;29;20103;-85
2024/03/23 02:11:17;;;;;;;17.27;8.13;;;;;;;-141.50;100.00;63355.56;4920408;29;20048;-85
2024/03/23 02:13:43;;;;;;;24.13;11.07;;;;;;;-141.50;100.00;63355.56;4920214;29;20172;-83
2024/03/23 02:16:09;;;;;;;29.20;13.02;;;;;;;-141.50;100.00;63355.56;4922091;29;20054;-84
2024/03/23 02:18:35;;;;;;;35.40;15.05;;;;;;;-141.50;100.00;63355.56;4920999;29;20070;-85
2024/03/23 02:21:02;;;;;;;37.35;16.45;;;;;;;-141.50;100.00;63355.56;4921422;29;20036;-86
2024/03/23 02:23:27;;;;;;;38.03;16.98;;;;;;;-141.50;100.00;63355.56;4922955;29;20075;-84
2024/03/23 02:25:53;;;;;;;43.17;18.20;;;;;;;-141.50;100.00;63355.56;4921499;29;20099;-85
2024/03/23 02:28:22;;;;;;;42.75;18.08;;;;;;;-141.50;100.00;63355.56;4923784;29;20142;-83
2024/03/23 02:30:49;;;;;;;46.40;19.80;;;;;;;-141.50;100.00;63355.56;4922381;29;20303;-85
2024/03/23 02:33:16;;;;;;;50.08;19.13;;;;;;;-141.50;100.00;63355.56;4915334;29;20067;-87
2024/03/23 02:35:45;;;;;;;50.05;20.90;;;;;;;-141.50;100.00;63355.56;4935480;29;20056;-84
2024/03/23 02:38:11;;;;;;;47.47;19.92;;;;;;;-141.50;100.00;63355.56;4920240;29;20079;-85
2024/03/23 02:40:37;;;;;;;47.55;20.50;;;;;;;-141.50;100.00;63355.56;4920715;29;20071;-86
2024/03/23 02:43:03;;;;;;;48.50;20.08;;;;;;;-141.50;100.00;63355.56;4918435;29;20043;-87
2024/03/23 02:45:30;;;;;;;54.30;21.25;;;;;;;-141.50;100.00;63355.56;4917559;29;20058;-86
2024/03/23 02:47:56;;;;;;;57.90;21.83;;;;;;;-141.50;100.00;63355.56;4916883;29;20138;-86
2024/03/23 02:50:23;;;;;;;54.70;21.63;;;;;;;-141.50;100.00;63355.56;4935445;29;20611;-87
2024/03/23 02:52:49;;;;;;;50.53;21.58;;;;;;;-141.50;100.00;63355.56;4918329;29;20052;-86
2024/03/23 02:55:15;;;;;;;53.92;20.92;;;;;;;-141.50;100.00;63355.56;4913801;29;20071;-85
2024/03/23 02:57:41;;;;;;;60.95;22.23;;;;;;;-141.50;100.00;63355.56;4913009;29;20055;-85
2024/03/23 03:00:09;;;;;;;62.67;22.63;;;;;;;-141.50;100.00;63355.56;4918290;29;20497;-84
2024/03/23 03:02:36;;;;;;;53.28;22.00;;;;;;;-141.50;100.00;63355.56;4919192;29;20052;-85
2024/03/23 03:05:02;;;;;;;53.17;21.40;;;;;;;-141.50;100.00;63355.56;4933718;28;20131;-84
2024/03/23 03:07:28;;;;;;;61.92;22.73;;;;;;;-141.50;100.00;63355.56;4915688;29;20055;-84
2024/03/23 03:09:54;;;;;;;57.50;22.15;;;;;;;-141.50;100.00;63355.56;4920508;29;20667;-84
2024/03/23 03:12:23;;;;;;;59.22;22.98;;;;;;;-141.50;100.00;63355.56;4921407;29;20044;-86
2024/03/23 03:14:49;;;;;;;55.47;23.30;;;;;;;-141.50;100.00;63355.56;4935384;29;20063;-85
2024/03/23 03:17:15;;;;;;;51.97;21.02;;;;;;;-141.50;100.00;63355.56;4919871;29;20047;-85
2024/03/23 03:19:41;;;;;;;57.53;22.17;;;;;;;-141.50;100.00;63355.56;4935742;28;20051;-86
2024/03/23 03:22:08;;;;;;;60.83;22.60;;;;;;;-141.50;100.00;63355.56;4920911;29;20044;-85
2024/03/23 03:24:34;;;;;;;56.10;22.25;;;;;;;-141.50;100.00;63355.56;4919731;29;20052;-85
2024/03/23 03:27:00;;;;;;;58.22;21.58;;;;;;;-141.50;100.00;63355.56;4918325;29;20115;-84
2024/03/23 03:29:33;;;;;;;59.95;23.58;;;;;;;-141.50;100.00;63355.56;4928985;29;20228;-86
2024/03/23 03:32:00;;;;;;;49.20;20.33;;;;;;;-141.50;100.00;63355.56;4903427;29;20409;-86
2024/03/23 03:34:26;;;;;;;52.88;21.58;;;;;;;-141.50;100.00;63355.56;4920093;29;20442;-84
2024/03/23 03:36:52;;;;;;;53.00;22.00;;;;;;;-141.50;100.00;63355.56;4914072;29;20077;-85
2024/03/23 03:39:18;;;;;;;60.80;23.10;;;;;;;-141.50;100.00;63355.56;4918567;29;20055;-86
2024/03/23 03:41:44;;;;;;;56.08;22.45;;;;;;;-141.50;100.00;63355.56;4919511;29;20083;-86
2024/03/23 03:44:10;;;;;;;51.90;21.40;;;;;;;-141.50;100.00;63355.56;4908147;29;20055;-84
2024/03/23 03:46:36;;;;;;;54.55;20.75;;;;;;;-141.50;100.00;63355.56;4911068;29;20059;-83
2024/03/23 03:49:02;;;;;;;56.25;22.15;;;;;;;-141.50;100.00;63355.56;4918401;29;20035;-84
2024/03/23 03:51:28;;;;;;;58.65;22.20;;;;;;;-141.50;100.00;63355.56;4919636;29;20039;-84
2024/03/23 03:53:54;;;;;;;52.92;20.67;;;;;;;-141.50;100.00;63355.56;4919257;29;20058;-85
2024/03/23 03:56:22;;;;;;;55.85;23.25;;;;;;;-141.50;100.00;63355.56;4922296;29;20075;-85
2024/03/23 03:58:48;;;;;;;55.00;21.92;;;;;;;-141.50;100.00;63355.56;4914525;29;20054;-84
2024/03/23 04:01:14;;;;;;;53.53;21.70;;;;;;;-141.50;100.00;63355.56;4914548;29;20060;-84
2024/03/23 04:03:43;;;;;;;50.45;20.23;;;;;;;-141.50;100.00;63355.56;4909332;29;20069;-82
2024/03/23 04:06:10;;;;;;;50.75;20.60;;;;;;;-141.50;100.00;63355.56;4919229;29;20066;-86
2024/03/23 04:08:36;;;;;;;51.97;21.20;;;;;;;-141.50;100.00;63355.56;4921426;29;20532;-86
2024/03/23 04:11:02;;;;;;;50.03;20.23;;;;;;;-141.50;100.00;63355.56;4920257;29;20043;-87
2024/03/23 04:13:28;;;;;;;49.45;19.58;;;;;;;-141.50;100.00;63355.56;4921260;29;20443;-85
2024/03/23 04:15:57;;;;;;;52.28;20.65;;;;;;;-141.50;100.00;63355.56;4917802;29;20056;-85
2024/03/23 04:18:24;;;;;;;53.53;21.30;;;;;;;-141.50;100.00;63355.56;4917906;29;20107;-85
2024/03/23 04:20:49;;;;;;;45.08;19.90;;;;;;;-141.50;100.00;63355.56;4921002;29;20063;-85
2024/03/23 04:23:21;;;;;;;54.78;19.83;;;;;;;-141.50;100.00;63355.56;4920403;29;20051;-84
2024/03/23 04:25:47;;;;;;;48.72;19.60;;;;;;;-141.50;100.00;63355.56;4919404;29;20115;-84
2024/03/23 04:28:13;;;;;;;48.65;19.63;;;;;;;-141.50;100.00;63355.56;4921170;29;20121;-84
2024/03/23 04:30:39;;;;;;;51.10;20.35;;;;;;;-141.50;100.00;63355.56;4921959;29;20091;-85
2024/03/23 04:33:05;;;;;;;52.80;20.08;;;;;;;-141.50;100.00;63355.56;4903208;29;20044;-84
2024/03/23 04:35:31;;;;;;;49.85;20.40;;;;;;;-141.50;100.00;63355.56;4920911;29;20056;-84
2024/03/23 04:37:58;;;;;;;49.60;19.77;;;;;;;-141.50;100.00;63355.56;4907655;29;20059;-84
2024/03/23 04:40:25;;;;;;;49.47;19.10;;;;;;;-141.50;100.00;63355.56;4921437;29;20178;-87
2024/03/23 04:42:51;;;;;;;53.65;20.45;;;;;;;-141.50;100.00;63355.56;4921535;28;20116;-84
2024/03/23 04:45:17;;;;;;;46.63;19.58;;;;;;;-141.50;100.00;63355.56;4920220;29;20064;-85
2024/03/23 04:47:43;;;;;;;47.35;18.73;;;;;;;-141.50;100.00;63355.56;4935622;29;20079;-84
2024/03/23 04:50:12;;;;;;;47.10;18.65;;;;;;;-141.50;100.00;63355.56;4921361;29;20053;-83
2024/03/23 04:52:39;;;;;;;44.22;19.30;;;;;;;-141.50;100.00;63355.56;4919521;29;20081;-83
2024/03/23 04:55:05;;;;;;;46.80;18.55;;;;;;;-141.50;100.00;63355.56;4918707;29;20047;-85
2024/03/23 04:57:31;;;;;;;45.08;19.23;;;;;;;-141.50;100.00;63355.56;4921674;29;20051;-84
2024/03/23 04:59:58;;;;;;;52.22;19.70;;;;;;;-141.50;100.00;63355.56;4925067;28;20147;-85
2024/03/23 05:02:25;;;;;;;45.13;18.67;;;;;;;-141.50;100.00;63355.56;4918654;29;20066;-85
2024/03/23 05:04:51;;;;;;;48.60;19.05;;;;;;;-141.50;100.00;63355.56;4918180;29;20068;-85
2024/03/23 05:07:17;;;;;;;46.47;19.13;;;;;;;-141.50;100.00;63355.56;4919438;29;20501;-86
2024/03/23 05:09:43;;;;;;;44.55;18.88;;;;;;;-141.50;100.00;63355.56;4917997;29;20059;-85
2024/03/23 05:12:09;;;;;;;47.00;18.17;;;;;;;-141.50;100.00;63355.56;4916010;29;20091;-85
2024/03/23 05:14:35;;;;;;;47.55;17.92;;;;;;;-141.50;100.00;63355.56;4913898;29;20056;-84
2024/03/23 05:17:01;;;;;;;49.13;19.40;;;;;;;-141.50;100.00;63355.56;4919014;29;20098;-81
2024/03/23 05:19:27;;;;;;;47.95;19.42;;;;;;;-141.50;100.00;63355.56;4916612;29;20059;-83
2024/03/23 05:21:53;;;;;;;49.55;19.73;;;;;;;-141.50;100.00;63355.56;4915784;29;20162;-84
2024/03/23 05:24:19;;;;;;;43.78;18.60;;;;;;;-141.50;100.00;63355.56;4919511;29;20068;-86
2024/03/23 05:26:45;;;;;;;47.42;19.95;;;;;;;-141.50;100.00;63355.56;4922282;29;20509;-87
2024/03/23 05:29:13;;;;;;;49.17;19.33;;;;;;;-141.50;100.00;63355.56;4917895;29;20532;-83
2024/03/23 05:31:41;;;;;;;48.60;19.48;;;;;;;-141.50;100.00;63355.56;4920395;29;20054;-83
2024/03/23 05:34:08;;;;;;;44.53;18.38;;;;;;;-141.50;100.00;63355.56;4918395;29;20082;-84
2024/03/23 05:36:37;;;;;;;45.83;18.35;;;;;;;-141.50;100.00;63355.56;4932884;28;20564;-82
2024/03/23 05:39:03;;;;;;;50.92;19.27;;;;;;;-141.50;100.00;63355.56;4930259;29;20051;-84
2024/03/23 05:41:33;;;;;;;44.20;18.77;;;;;;;-141.50;100.00;63355.56;4925095;29;20067;-82
2024/03/23 05:43:59;;;;;;;46.67;18.30;;;;;;;-141.50;100.00;63355.56;4914397;29;20048;-83
2024/03/23 05:46:25;;;;;;;51.08;19.77;;;;;;;-141.50;100.00;63355.56;4923197;29;20493;-83
2024/03/23 05:48:51;;;;;;;46.92;18.38;;;;;;;-141.50;100.00;63355.56;4921882;29;20078;-82
2024/03/23 05:51:25;;;;;;;46.38;18.48;;;;;;;-141.50;100.00;63355.56;4938849;28;20544;-82
2024/03/23 05:53:51;;;;;;;40.75;16.55;;;;;;;-141.50;100.00;63355.56;4941686;28;20174;-82
2024/03/23 05:56:20;;;;;;;40.28;17.02;;;;;;;-141.50;100.00;63355.56;4914500;29;20075;-82
2024/03/23 05:58:48;;;;;;;46.47;17.63;;;;;;;-141.50;100.00;63355.56;4914298;29;20084;-82
2024/03/23 06:01:14;;;;;;;45.25;17.55;;;;;;;-141.50;100.00;63355.56;4916977;29;20202;-84
2024/03/23 06:03:40;;;;;;;46.35;19.05;;;;;;;-141.50;100.00;63355.56;4921567;28;20082;-81
2024/03/23 06:06:11;;;;;;;48.30;18.20;;;;;;;-141.50;100.00;63355.56;4925920;29;20484;-80
2024/03/23 06:08:37;;;;;;;47.55;18.63;;;;;;;-141.50;100.00;63355.56;4917787;29;20086;-80
2024/03/23 06:11:06;;;;;;;49.25;19.38;;;;;;;-141.50;100.00;63355.56;4923334;29;20039;-78
2024/03/23 06:13:33;;;;;;;51.85;18.85;;;;;;;-141.50;100.00;63355.56;4919739;29;20060;-84
2024/03/23 06:16:00;;;;;;;49.95;20.35;;;;;;;-141.50;100.00;63355.56;4909650;29;21672;-83
2024/03/23 06:18:28;;;;;;;46.28;17.52;;;;;;;-141.50;100.00;63355.56;4911629;29;20074;-84
2024/03/23 06:20:54;;;;;;;44.67;18.35;;;;;;;-141.50;100.00;63355.56;4918103;29;20119;-82
2024/03/23 06:23:20;;;;;;;44.25;18.23;;;;;;;-141.50;100.00;63355.56;4909556;29;20195;-83
2024/03/23 06:25:47;;;;;;;41.60;17.45;;;;;;;-141.50;100.00;63355.56;4909141;29;20119;-83
2024/03/23 06:28:13;;;;;;;44.00;17.65;;;;;;;-141.50;100.00;63355.56;4914782;29;20082;-84
2024/03/23 06:30:39;;;;;;;43.22;16.73;;;;;;;-141.50;100.00;63355.56;4915703;29;20146;-83
2024/03/23 06:33:08;;;;;;;46.13;18.60;;;;;;;-141.50;100.00;63355.56;4908762;29;20056;-84
2024/03/23 06:35:33;;;;;;;41.47;17.13;;;;;;;-141.50;100.00;63355.56;4919149;29;20052;-84
2024/03/23 06:37:59;;;;;;;44.65;18.30;;;;;;;-141.50;100.00;63355.56;4907242;29;20139;-83
2024/03/23 06:40:25;;;;;;;47.42;17.92;;;;;;;-141.50;100.00;63355.56;4919970;29;20078;-83
2024/03/23 06:42:51;;;;;;;44.17;17.73;;;;;;;-141.50;100.00;63355.56;4916765;29;20055;-86
2024/03/23 06:45:22;;;;;;;40.08;17.25;;;;;;;-141.50;100.00;63355.56;4926382;28;20054;-85
2024/03/23 06:47:50;;;;;;;42.00;16.77;;;;;;;-141.50;100.00;63355.56;4915995;29;20066;-81
2024/03/23 06:50:16;;;;;;;41.58;18.00;;;;;;;-141.50;100.00;63355.56;4905590;29;20051;-82
2024/03/23 06:52:42;;;;;;;42.92;17.08;;;;;;;-141.50;100.00;63355.56;4925044;29;20061;-83
2024/03/23 06:55:08;;;;;;;42.67;18.27;;;;;;;-141.50;100.00;63355.56;4931472;29;20050;-83
2024/03/23 06:57:34;;;;;;;40.22;16.92;;;;;;;-141.50;100.00;63355.56;4915081;29;20143;-83
2024/03/23 07:00:00;;;;;;;40.40;16.75;;;;;;;-141.50;100.00;63355.56;4913954;29;20082;-83
2024/03/23 07:02:26;;;;;;;40.38;16.83;;;;;;;-141.50;100.00;63355.56;4912345;29;20052;-83
2024/03/23 07:04:52;;;;;;;35.78;16.30;;;;;;;-141.50;100.00;63355.56;4915962;29;20055;-85
2024/03/23 07:07:18;;;;;;;40.72;16.88;;;;;;;-141.50;100.00;63355.56;4922145;29;20498;-84
2024/03/23 07:09:44;;;;;;;38.80;17.02;;;;;;;-141.50;100.00;63355.56;4910671;29;20498;-85
2024/03/23 07:12:10;;;;;;;41.88;17.48;;;;;;;-141.50;100.00;63355.56;4921204;29;20039;-83
2024/03/23 07:14:36;;;;;;;42.03;17.02;;;;;;;-141.50;100.00;63355.56;4903862;29;20064;-84
2024/03/23 07:17:02;;;;;;;41.95;17.27;;;;;;;-141.50;100.00;63355.56;4914393;28;20058;-85
2024/03/23 07:19:28;;;;;;;38.97;17.00;;;;;;;-141.50;100.00;63355.56;4908610;29;20122;-84
2024/03/23 07:21:54;;;;;;;37.47;16.90;;;;;;;-141.50;100.00;63355.56;4911392;29;20063;-84
2024/03/23 07:24:20;;;;;;;40.13;18.02;;;;;;;-141.50;100.00;63355.56;4919202;29;20051;-85
2024/03/23 07:26:45;;;;;;;38.95;16.60;;;;;;;-141.50;100.00;63355.56;4904521;28;20058;-83
2024/03/23 07:29:12;;;;;;;34.85;15.13;;;;;;;-141.50;100.00;63355.56;4915953;29;20043;-84
2024/03/23 07:31:38;;;;;;;36.80;16.23;;;;;;;-141.50;100.00;63355.56;4920506;29;20143;-84
2024/03/23 07:34:05;;;;;;;36.55;16.10;;;;;;;-141.50;100.00;63355.56;4911491;29;20197;-84
2024/03/23 07:36:31;;;;;;;42.05;16.85;;;;;;;-141.50;100.00;63355.56;4913783;29;20072;-84
2024/03/23 07:38:57;;;;;;;36.72;16.20;;;;;;;-141.50;100.00;63355.56;4899613;29;20193;-85
2024/03/23 07:41:23;;;;;;;59.17;25.33;;;;;;;-141.50;100.00;63355.56;4911000;29;20347;-84
2024/03/23 07:43:50;;;;;;;52.00;22.55;;;;;;;-141.50;100.00;63355.56;4915377;29;20304;-85
2024/03/23 07:46:16;;;;;;;32.53;15.30;;;;;;;-141.50;100.00;63355.56;4914482;29;20056;-84
2024/03/23 07:48:42;;;;;;;21.98;8.90;;;;;;;-141.50;100.00;63355.56;4911048;29;20657;-84
2024/03/23 07:51:10;;;;;;;23.98;10.18;;;;;;;-141.50;100.00;63355.56;4933124;28;20063;-83
2024/03/23 07:53:37;;;;;;;21.92;9.80;;;;;;;-141.50;100.00;63355.56;4911022;29;20115;-85
2024/03/23 07:56:05;;;;;;;20.58;9.95;;;;;;;-141.50;100.00;63355.56;4904632;29;20419;-83
2024/03/23 07:58:31;;;;;;;16.45;8.90;;;;;;;-141.50;100.00;63355.56;4914356;29;20054;-84
2024/03/23 08:01:04;;;;;;;18.63;8.75;;;;;;;-141.50;100.00;63355.56;4904999;29;20060;-84
2024/03/23 08:03:30;;;;;;;15.18;7.80;;;;;;;-141.50;100.00;63355.56;4932099;28;20059;-84
2024/03/23 08:06:06;;;;;;;18.52;8.07;;;;;;;-141.50;100.00;63355.56;4908222;29;20116;-84
2024/03/23 08:08:31;;;;;;;15.02;8.00;;;;;;;-141.50;100.00;63355.56;4904760;29;20194;-85
2024/03/23 08:10:57;;;;;;;14.65;8.02;;;;;;;-141.50;100.00;63355.56;4904322;29;20052;-84
2024/03/23 08:13:23;;;;;;;18.27;8.60;;;;;;;-141.50;100.00;63355.56;4913334;29;20067;-84
2024/03/23 08:15:49;;;;;;;17.95;8.45;;;;;;;-141.50;100.00;63355.56;4928414;29;20098;-84
2024/03/23 08:18:18;;;;;;;14.05;8.23;;;;;;;-141.50;100.00;63355.56;4911536;29;20056;-85
2024/03/23 08:20:47;;;;;;;15.52;7.97;;;;;;;-141.50;100.00;63355.56;4902661;29;20065;-83
2024/03/23 08:23:13;;;;;;;19.38;8.27;;;;;;;-141.50;100.00;63355.56;4915327;29;20050;-85
2024/03/23 08:25:38;;;;;;;21.48;9.57;;;;;;;-141.50;100.00;63355.56;4914543;29;20047;-83
2024/03/23 08:28:05;;;;;;;18.48;9.38;;;;;;;-141.50;100.00;63355.56;4914562;29;20043;-85
2024/03/23 08:30:31;;;;;;;17.67;8.57;;;;;;;-141.50;100.00;63355.56;4912927;29;20046;-84
2024/03/23 08:32:57;;;;;;;20.90;8.93;;;;;;;-141.50;100.00;63355.56;4915453;29;20051;-82
2024/03/23 08:35:23;;;;;;;17.70;9.30;;;;;;;-141.50;100.00;63355.56;4903215;29;20052;-87
2024/03/23 08:37:49;;;;;;;19.20;9.00;;;;;;;-141.50;100.00;63355.56;4916367;29;20079;-84
2024/03/23 08:40:15;;;;;;;19.15;9.75;;;;;;;-141.50;100.00;63355.56;4914420;29;20111;-83
2024/03/23 08:42:41;;;;;;;21.70;10.63;;;;;;;-141.50;100.00;63355.56;4915030;29;20047;-84
2024/03/23 08:45:07;;;;;;;21.27;10.77;;;;;;;-141.50;100.00;63355.56;4915442;29;20052;-84
2024/03/23 08:47:36;;;;;;;19.00;9.60;;;;;;;-141.50;100.00;63355.56;4914227;29;20061;-83
2024/03/23 08:50:02;;;;;;;21.27;10.65;;;;;;;-141.50;100.00;63355.56;4906755;29;20040;-82
2024/03/23 08:52:29;;;;;;;27.00;12.20;;;;;;;-141.50;100.00;63355.56;4922853;29;20050;-85
2024/03/23 08:54:56;;;;;;;21.60;9.95;;;;;;;-141.50;100.00;63355.56;4915446;29;20536;-83
2024/03/23 08:57:23;;;;;;;11.23;4.93;;;;;;;-141.50;100.00;63355.56;4919632;29;20059;-85
2024/03/23 08:59:50;;;;;;;6.72;3.08;;;;;;;-141.50;100.00;63355.56;4908153;29;20084;-85
2024/03/23 09:02:16;;;;;;;6.47;2.38;;;;;;;-141.50;100.00;63355.56;4911208;29;20446;-83
2024/03/23 09:04:42;;;;;;;4.75;1.70;;;;;;;-141.50;100.00;63355.56;4916399;29;20106;-86
2024/03/23 09:07:08;;;;;;;3.08;1.55;;;;;;;-141.50;100.00;63355.56;4934647;29;20051;-82
2024/03/23 09:09:33;;;;;;;3.75;1.27;;;;;;;-141.50;100.00;63355.56;4918576;29;20047;-83
2024/03/23 09:12:00;;;;;;;2.38;1.27;;;;;;;-141.50;100.00;63355.56;4918319;29;20080;-86
2024/03/23 09:14:26;;;;;;;2.85;1.20;;;;;;;-141.50;100.00;63355.56;4903677;29;20127;-83
2024/03/23 09:16:52;;;;;;;2.67;1.00;;;;;;;-141.50;100.00;63355.56;4912603;29;20626;-84
2024/03/23 09:19:18;;;;;;;2.00;0.80;;;;;;;-141.50;100.00;63355.56;4918685;29;20047;-83
2024/03/23 09:21:44;;;;;;;1.88;0.95;;;;;;;-141.50;100.00;63355.56;4916891;28;20059;-84
2024/03/23 09:24:10;;;;;;;2.40;1.13;;;;;;;-141.50;100.00;63355.56;4920169;29;20405;-85
2024/03/23 09:26:36;;;;;;;2.42;1.10;;;;;;;-141.50;100.00;63355.56;4916453;29;20048;-83
2024/03/23 09:29:03;;;;;;;2.25;0.90;;;;;;;-141.50;100.00;63355.56;4907836;29;20067;-81
2024/03/23 09:31:31;;;;;;;1.85;0.70;;;;;;;-141.50;100.00;63355.56;4927123;29;20051;-81
2024/03/23 09:33:58;;;;;;;5.20;1.10;;;;;;;-141.50;100.00;63355.56;4930976;29;20528;-83
2024/03/23 09:36:24;;;;;;;5.35;0.70;;;;;;;-141.50;100.00;63355.56;4934126;29;20072;-83
2024/03/23 09:38:49;;;;;;;2.80;0.80;;;;;;;-141.50;100.00;63355.56;4935382;29;20094;-82
2024/03/23 09:41:15;;;;;;;1.05;0.75;;;;;;;-141.50;100.00;63355.56;4918682;29;20044;-83
2024/03/23 09:43:45;;;;;;;3.35;0.95;;;;;;;-141.50;100.00;63355.56;4915265;29;20048;-83
2024/03/23 09:46:12;;;;;;;2.10;0.80;;;;;;;-141.50;100.00;63355.56;4916937;29;20107;-82
2024/03/23 09:48:38;;;;;;;1.30;0.85;;;;;;;-141.50;100.00;63355.56;4873952;29;1167189;-82
2024/03/23 09:51:04;;;;;;;1.70;0.80;;;;;;;-141.50;100.00;63355.56;4894090;29;20044;-82
2024/03/23 09:53:31;;;;;;;4.22;0.70;;;;;;;-141.50;100.00;63355.56;4908019;29;20079;-82
2024/03/23 09:55:57;;;;;;;1.38;0.73;;;;;;;-141.50;100.00;63355.56;4928932;29;20068;-82
2024/03/23 09:58:23;;;;;;;1.88;0.70;;;;;;;-141.50;100.00;63355.56;4919511;29;20127;-82
2024/03/23 10:00:49;;;;;;;1.90;1.05;;;;;;;-141.50;100.00;63355.56;4918670;29;20528;-81
2024/03/23 10:03:15;;;;;;;1.83;1.08;;;;;;;-141.50;100.00;63355.56;4925708;29;20048;-82
2024/03/23 10:05:42;;;;;;;2.75;0.88;;;;;;;-141.50;100.00;63355.56;4920140;29;20072;-84
2024/03/23 10:08:14;;;;;;;3.47;0.77;;;;;;;-141.50;100.00;63355.56;4924578;29;20100;-84
2024/03/23 10:10:44;;;;;;;2.03;0.70;;;;;;;-141.50;100.00;63355.56;4913067;29;20536;-80
2024/03/23 10:13:14;;;;;;;4.43;0.90;;;;;;;-141.50;100.00;63355.56;4917328;29;20533;-87
2024/03/23 10:15:40;;;;;;;3.50;1.30;;;;;;;-141.50;100.00;63355.56;4894175;29;20180;-83
2024/03/23 10:18:20;;;;;;;4.07;0.85;;;;;;;-141.50;100.00;63355.56;4897088;29;20103;-84
2024/03/23 10:20:52;;;;;;;1.17;0.50;;;;;;;-141.50;100.00;63355.56;4921835;28;20074;-83
2024/03/23 10:23:18;;;;;;;0.77;0.40;;;;;;;-141.50;100.00;63355.56;4917165;29;20126;-84
2024/03/23 10:25:45;;;;;;;2.28;0.90;;;;;;;-141.50;100.00;63355.56;4919052;29;20236;-82
2024/03/23 10:28:11;;;;;;;3.35;1.60;;;;;;;-141.50;100.00;63355.56;4911707;29;20119;-81
2024/03/23 10:30:38;;;;;;;5.10;2.63;;;;;;;-141.50;100.00;63355.56;4939092;29;20063;-81
2024/03/23 10:33:11;;;;;;;7.72;3.60;;;;;;;-141.50;100.00;63355.56;4909638;29;20067;-81
2024/03/23 10:35:40;;;;;;;7.55;3.63;;;;;;;-141.50;100.00;63355.56;4937253;29;20086;-79
2024/03/23 10:38:08;;;;;;;5.13;2.80;;;;;;;-141.50;100.00;63355.56;4923049;28;20130;-80
2024/03/23 10:40:35;;;;;;;6.30;2.95;;;;;;;-141.50;100.00;63355.56;4937911;29;20055;-80
2024/03/23 10:43:04;;;;;;;4.63;2.58;;;;;;;-141.50;100.00;63355.56;4928781;28;20047;-81
2024/03/23 10:45:31;;;;;;;4.50;2.10;;;;;;;-141.50;100.00;63355.56;4922057;29;20059;-82
2024/03/23 10:47:58;;;;;;;2.00;1.20;;;;;;;-141.50;100.00;63355.56;4922073;29;20427;-81
2024/03/23 10:50:25;;;;;;;2.55;1.25;;;;;;;-141.50;100.00;63355.56;4912359;29;20055;-82
2024/03/23 10:52:55;;;;;;;4.80;1.77;;;;;;;-141.50;100.00;63355.56;4922715;29;20528;-79
2024/03/23 10:55:24;;;;;;;2.90;1.58;;;;;;;-141.50;100.00;63355.56;4936683;29;20521;-82
2024/03/23 10:57:53;;;;;;;4.55;1.80;;;;;;;-141.50;100.00;63355.56;4916618;29;20061;-80